createdAt,value
2022-11-25T00:01:26.147Z,17.60
2022-11-25T00:03:56.460Z,16.27
2022-11-25T00:06:33.445Z,14.45
2022-11-25T00:09:06.612Z,14.98
2022-11-25T00:11:39.236Z,19.00
2022-11-25T00:14:07.950Z,16.45
2022-11-25T00:16:34.791Z,17.88
2022-11-25T00:19:01.683Z,17.23
2022-11-25T00:21:32.702Z,16.30
2022-11-25T00:24:03.372Z,18.13
2022-11-25T00:26:32.688Z,17.45
2022-11-25T00:29:04.158Z,16.63
2022-11-25T00:31:34.761Z,14.30
2022-11-25T00:34:01.827Z,17.70
2022-11-25T00:36:36.301Z,17.02
2022-11-25T00:39:11.271Z,15.35
2022-11-25T00:41:57.128Z,15.70
2022-11-25T00:44:36.983Z,13.02
2022-11-25T00:47:16.528Z,12.93
2022-11-25T00:49:49.472Z,13.80
2022-11-25T00:52:22.669Z,11.80
2022-11-25T00:54:50.705Z,14.43
2022-11-25T00:57:20.551Z,14.13
2022-11-25T00:59:47.933Z,11.52
2022-11-25T01:02:18.782Z,16.60
2022-11-25T01:04:46.404Z,12.32
2022-11-25T01:07:13.524Z,11.13
2022-11-25T01:09:40.386Z,11.68
2022-11-25T01:12:07.226Z,14.35
2022-11-25T01:14:34.892Z,13.38
2022-11-25T01:17:02.003Z,12.48
2022-11-25T01:19:28.900Z,14.65
2022-11-25T01:21:55.741Z,12.77
2022-11-25T01:24:24.034Z,9.32
2022-11-25T01:26:51.107Z,7.55
2022-11-25T01:29:19.391Z,14.48
2022-11-25T01:31:47.268Z,13.70
2022-11-25T01:34:21.999Z,10.27
2022-11-25T01:36:49.113Z,10.82
2022-11-25T01:39:30.449Z,12.35
2022-11-25T01:41:59.703Z,10.23
2022-11-25T01:44:32.720Z,13.35
2022-11-25T01:47:16.945Z,14.35
2022-11-25T01:49:49.760Z,9.98
2022-11-25T01:52:29.475Z,14.05
2022-11-25T01:55:17.330Z,6.78
2022-11-25T01:57:49.015Z,10.25
2022-11-25T02:00:16.852Z,11.77
2022-11-25T02:02:44.291Z,6.60
2022-11-25T02:05:16.749Z,14.65
2022-11-25T02:07:47.374Z,10.07
2022-11-25T02:10:24.269Z,8.95
2022-11-25T02:12:52.230Z,7.07
2022-11-25T02:15:19.774Z,11.18
2022-11-25T02:17:46.956Z,11.27
2022-11-25T02:20:17.569Z,10.73
2022-11-25T02:23:15.983Z,8.50
2022-11-25T02:25:45.111Z,7.50
2022-11-25T02:28:23.590Z,6.20
2022-11-25T02:30:51.645Z,7.88
2022-11-25T02:33:19.690Z,8.80
2022-11-25T02:35:59.493Z,8.20
2022-11-25T02:38:38.531Z,9.40
2022-11-25T02:41:33.701Z,9.30
2022-11-25T02:44:00.864Z,15.55
2022-11-25T02:46:28.670Z,13.57
2022-11-25T02:49:13.229Z,10.60
2022-11-25T02:54:11.889Z,11.20
2022-11-25T02:56:40.055Z,8.25
2022-11-25T02:59:07.630Z,10.95
2022-11-25T03:01:35.463Z,5.53
2022-11-25T03:04:02.650Z,11.38
2022-11-25T03:06:30.391Z,7.95
2022-11-25T03:08:58.145Z,9.93
2022-11-25T03:11:44.028Z,10.40
2022-11-25T03:14:10.962Z,9.10
2022-11-25T03:16:37.875Z,16.00
2022-11-25T03:19:05.506Z,9.93
2022-11-25T03:21:32.297Z,11.90
2022-11-25T03:23:59.045Z,11.68
2022-11-25T03:26:26.162Z,13.50
2022-11-25T03:28:53.178Z,8.10
2022-11-25T03:31:20.077Z,15.27
2022-11-25T03:33:46.862Z,9.52
2022-11-25T03:36:13.646Z,10.52
2022-11-25T03:38:40.523Z,10.20
2022-11-25T03:41:07.277Z,5.40
2022-11-25T03:43:35.468Z,8.80
2022-11-25T03:46:02.334Z,9.98
2022-11-25T03:48:29.207Z,13.32
2022-11-25T03:50:56.418Z,12.90
2022-11-25T03:53:23.177Z,6.95
2022-11-25T03:55:50.123Z,7.80
2022-11-25T03:58:16.961Z,11.50
2022-11-25T04:00:43.891Z,10.30
2022-11-25T04:03:10.787Z,5.28
2022-11-25T04:05:37.633Z,14.13
2022-11-25T04:08:04.624Z,13.25
2022-11-25T04:10:31.425Z,10.65
2022-11-25T04:12:58.208Z,11.18
2022-11-25T04:15:24.963Z,11.15
2022-11-25T04:17:51.754Z,9.35
2022-11-25T04:20:18.650Z,10.65
2022-11-25T04:22:45.519Z,6.57
2022-11-25T04:25:12.340Z,8.88
2022-11-25T04:27:39.181Z,12.52
2022-11-25T04:30:07.891Z,7.43
2022-11-25T04:32:37.157Z,14.38
2022-11-25T04:35:04.576Z,10.88
2022-11-25T04:37:31.347Z,9.63
2022-11-25T04:39:58.112Z,9.52
2022-11-25T04:42:34.546Z,12.50
2022-11-25T04:45:22.421Z,12.73
2022-11-25T04:47:50.288Z,14.80
2022-11-25T04:50:20.848Z,14.68
2022-11-25T04:52:47.612Z,12.40
2022-11-25T04:55:14.381Z,9.82
2022-11-25T04:57:41.308Z,13.55
2022-11-25T05:00:09.480Z,19.55
2022-11-25T05:02:36.370Z,17.23
2022-11-25T05:05:03.379Z,10.55
2022-11-25T05:07:30.433Z,11.40
2022-11-25T05:09:57.611Z,13.23
2022-11-25T05:12:35.158Z,14.88
2022-11-25T05:15:02.076Z,13.50
2022-11-25T05:17:31.336Z,13.60
2022-11-25T05:19:58.516Z,13.68
2022-11-25T05:22:29.713Z,11.88
2022-11-25T05:24:56.662Z,12.48
2022-11-25T05:27:24.700Z,12.35
2022-11-25T05:29:55.697Z,11.13
2022-11-25T05:32:23.672Z,10.40
2022-11-25T05:34:50.476Z,8.35
2022-11-25T05:37:21.281Z,11.57
2022-11-25T05:39:51.365Z,7.78
2022-11-25T05:42:18.436Z,16.73
2022-11-25T05:44:45.175Z,15.57
2022-11-25T05:47:11.914Z,10.75
2022-11-25T05:49:38.682Z,12.98
2022-11-25T05:52:05.565Z,11.68
2022-11-25T05:54:32.303Z,12.45
2022-11-25T05:56:59.101Z,13.05
2022-11-25T05:59:25.887Z,14.00
2022-11-25T06:01:55.905Z,13.35
2022-11-25T06:04:22.743Z,13.10
2022-11-25T06:06:49.545Z,13.27
2022-11-25T06:09:16.305Z,9.40
2022-11-25T06:11:43.067Z,17.13
2022-11-25T06:14:10.085Z,11.02
2022-11-25T06:16:36.907Z,12.40
2022-11-25T06:19:06.552Z,14.20
2022-11-25T06:21:33.406Z,8.38
2022-11-25T06:24:00.241Z,13.18
2022-11-25T06:26:27.021Z,10.40
2022-11-25T06:28:55.501Z,11.93
2022-11-25T06:31:25.310Z,11.15
2022-11-25T06:33:53.442Z,9.57
2022-11-25T06:36:21.856Z,11.48
2022-11-25T06:38:54.183Z,16.65
2022-11-25T06:41:23.901Z,16.05
2022-11-25T06:43:50.721Z,11.73
2022-11-25T06:46:24.407Z,14.80
2022-11-25T06:48:53.364Z,11.93
2022-11-25T06:51:20.406Z,14.88
2022-11-25T06:53:47.258Z,12.55
2022-11-25T06:56:23.910Z,13.35
2022-11-25T06:58:51.626Z,11.43
2022-11-25T07:01:25.275Z,12.02
2022-11-25T07:03:55.353Z,11.00
2022-11-25T07:06:22.749Z,14.20
2022-11-25T07:08:50.095Z,8.27
2022-11-25T07:11:25.945Z,6.65
2022-11-25T07:13:55.734Z,12.25
2022-11-25T07:16:22.642Z,8.65
2022-11-25T07:18:50.146Z,8.82
2022-11-25T07:21:20.357Z,15.95
2022-11-25T07:23:47.581Z,11.80
2022-11-25T07:26:21.702Z,10.57
2022-11-25T07:31:33.753Z,8.82
2022-11-25T07:36:31.763Z,11.65
2022-11-25T07:39:01.816Z,13.70
2022-11-25T07:41:29.799Z,14.68
2022-11-25T07:44:00.323Z,12.25
2022-11-25T07:46:34.012Z,10.00
2022-11-25T07:49:05.538Z,16.95
2022-11-25T07:51:42.059Z,10.25
2022-11-25T07:54:12.376Z,19.70
2022-11-25T07:56:41.851Z,10.25
2022-11-25T07:59:16.244Z,15.68
2022-11-25T08:01:44.033Z,16.60
2022-11-25T08:04:19.486Z,12.88
2022-11-25T08:06:49.486Z,18.48
2022-11-25T08:09:19.958Z,9.45
2022-11-25T08:11:47.738Z,16.83
2022-11-25T08:14:15.715Z,15.60
2022-11-25T08:16:43.231Z,20.00
2022-11-25T08:19:15.291Z,17.15
2022-11-25T08:21:42.426Z,9.93
2022-11-25T08:24:16.498Z,11.23
2022-11-25T08:26:43.327Z,18.38
2022-11-25T08:29:15.387Z,9.00
2022-11-25T08:31:43.063Z,16.05
2022-11-25T08:34:19.009Z,12.00
2022-11-25T08:36:48.636Z,15.48
2022-11-25T08:39:44.406Z,9.95
2022-11-25T08:42:04.731Z,15.98
2022-11-25T08:44:31.529Z,13.35
2022-11-25T08:46:58.441Z,16.02
2022-11-25T08:49:26.865Z,20.42
2022-11-25T08:51:53.652Z,15.70
2022-11-25T08:54:20.477Z,13.93
2022-11-25T08:56:47.280Z,10.40
2022-11-25T08:59:14.067Z,13.55
2022-11-25T09:01:40.878Z,7.57
2022-11-25T09:04:07.765Z,10.48
2022-11-25T09:06:34.521Z,11.35
2022-11-25T09:09:01.770Z,14.02
2022-11-25T09:11:29.222Z,20.05
2022-11-25T09:13:56.168Z,13.13
2022-11-25T09:16:24.358Z,8.98
2022-11-25T09:18:55.846Z,15.77
2022-11-25T09:21:25.328Z,10.98
2022-11-25T09:23:53.967Z,12.45
2022-11-25T09:26:30.305Z,11.65
2022-11-25T09:28:58.188Z,16.35
2022-11-25T09:31:25.131Z,14.77
2022-11-25T09:33:52.063Z,12.32
2022-11-25T09:36:20.545Z,10.88
2022-11-25T09:38:47.754Z,11.02
2022-11-25T09:41:52.234Z,13.68
2022-11-25T09:45:08.157Z,17.95
2022-11-25T09:48:01.398Z,19.52
2022-11-25T09:50:52.406Z,8.35
2022-11-25T09:53:57.428Z,11.88
2022-11-25T09:56:39.701Z,18.88
2022-11-25T09:59:22.225Z,9.57
2022-11-25T10:02:11.448Z,11.80
2022-11-25T10:04:47.801Z,15.60
2022-11-25T10:07:22.860Z,14.35
2022-11-25T10:09:49.647Z,13.85
2022-11-25T10:12:31.133Z,11.68
2022-11-25T10:15:05.056Z,7.88
2022-11-25T10:17:55.224Z,24.08
2022-11-25T10:20:36.996Z,14.98
2022-11-25T10:23:29.703Z,12.45
2022-11-25T10:26:03.411Z,10.93
2022-11-25T10:28:34.239Z,15.88
2022-11-25T10:31:19.641Z,9.63
2022-11-25T10:33:53.067Z,7.45
2022-11-25T10:36:40.412Z,11.57
2022-11-25T10:39:15.559Z,14.80
2022-11-25T10:42:12.617Z,15.25
2022-11-25T10:44:41.581Z,7.90
2022-11-25T10:47:26.970Z,12.60
2022-11-25T10:50:27.893Z,9.25
2022-11-25T10:53:12.093Z,15.85
2022-11-25T10:55:39.326Z,19.65
2022-11-25T10:58:30.361Z,14.65
2022-11-25T11:01:25.483Z,16.85
2022-11-25T11:04:14.894Z,11.32
2022-11-25T11:06:44.856Z,15.13
2022-11-25T11:09:40.812Z,13.63
2022-11-25T11:12:25.967Z,15.02
2022-11-25T11:15:15.326Z,14.38
2022-11-25T11:17:42.071Z,10.30
2022-11-25T11:20:08.693Z,12.93
2022-11-25T11:22:36.964Z,19.15
2022-11-25T11:25:27.633Z,15.75
2022-11-25T11:27:55.188Z,12.75
2022-11-25T11:30:26.140Z,12.65
2022-11-25T11:33:29.987Z,14.55
2022-11-25T11:36:12.974Z,12.32
2022-11-25T11:39:14.880Z,11.00
2022-11-25T11:42:28.691Z,11.82
2022-11-25T11:45:32.771Z,12.52
2022-11-25T11:48:21.188Z,7.28
2022-11-25T11:51:20.324Z,13.98
2022-11-25T11:54:18.207Z,16.58
2022-11-25T11:56:55.598Z,8.85
2022-11-25T11:59:31.468Z,15.40
2022-11-25T12:02:31.961Z,12.88
2022-11-25T12:05:10.880Z,13.85
2022-11-25T12:08:05.048Z,12.48
2022-11-25T12:10:58.243Z,12.88
2022-11-25T12:13:46.933Z,11.43
2022-11-25T12:16:30.523Z,9.43
2022-11-25T12:19:39.808Z,8.37
2022-11-25T12:22:11.433Z,8.13
2022-11-25T12:25:02.014Z,12.68
2022-11-25T12:27:38.724Z,8.00
2022-11-25T12:30:10.776Z,11.80
2022-11-25T12:33:03.745Z,15.35
2022-11-25T12:35:59.883Z,15.27
2022-11-25T12:38:38.661Z,8.95
2022-11-25T12:41:30.744Z,13.00
2022-11-25T12:44:30.622Z,13.43
2022-11-25T12:46:58.788Z,9.20
2022-11-25T12:49:48.153Z,14.45
2022-11-25T12:53:12.549Z,14.63
2022-11-25T12:55:40.946Z,14.20
2022-11-25T12:58:22.622Z,12.95
2022-11-25T13:01:32.135Z,9.40
2022-11-25T13:04:35.769Z,12.43
2022-11-25T13:07:26.149Z,7.50
2022-11-25T13:10:29.371Z,10.43
2022-11-25T13:13:20.257Z,11.50
2022-11-25T13:15:53.125Z,14.02
2022-11-25T13:18:27.366Z,12.13
2022-11-25T13:20:55.955Z,10.98
2022-11-25T13:23:26.911Z,9.20
2022-11-25T13:26:37.060Z,13.48
2022-11-25T13:29:26.909Z,12.70
2022-11-25T13:32:03.159Z,9.15
2022-11-25T13:34:35.141Z,10.05
2022-11-25T13:37:36.876Z,12.32
2022-11-25T13:40:20.089Z,8.07
2022-11-25T13:42:46.973Z,12.45
2022-11-25T13:45:44.784Z,11.23
2022-11-25T13:48:20.944Z,9.63
2022-11-25T13:51:10.770Z,10.50
2022-11-25T13:53:37.871Z,10.70
2022-11-25T13:56:30.968Z,12.38
2022-11-25T13:59:16.935Z,8.55
2022-11-25T14:01:46.760Z,10.05
2022-11-25T14:04:15.696Z,8.05
2022-11-25T14:07:00.809Z,14.25
2022-11-25T14:10:10.256Z,7.22
2022-11-25T14:13:20.238Z,7.10
2022-11-25T14:16:02.316Z,13.05
2022-11-25T14:22:00.300Z,10.73
2022-11-25T14:24:41.456Z,9.45
2022-11-25T14:27:26.497Z,14.40
2022-11-25T14:29:59.364Z,8.88
2022-11-25T14:32:53.121Z,13.32
2022-11-25T14:35:32.976Z,9.05
2022-11-25T14:38:05.179Z,11.15
2022-11-25T14:40:42.080Z,13.13
2022-11-25T14:43:20.949Z,6.57
2022-11-25T14:45:48.006Z,12.50
2022-11-25T14:48:25.898Z,12.50
2022-11-25T14:51:01.518Z,8.57
2022-11-25T14:53:30.101Z,10.02
2022-11-25T14:56:00.262Z,7.25
2022-11-25T14:58:27.475Z,9.73
2022-11-25T15:01:18.086Z,10.32
2022-11-25T15:03:48.294Z,17.58
2022-11-25T15:06:16.513Z,17.08
2022-11-25T15:08:46.551Z,8.52
2022-11-25T15:11:20.131Z,12.00
2022-11-25T15:14:03.031Z,9.05
2022-11-25T15:16:40.158Z,9.20
2022-11-25T15:19:26.040Z,8.82
2022-11-25T15:24:55.637Z,10.88
2022-11-25T15:27:28.695Z,11.13
2022-11-25T15:29:57.157Z,15.65
2022-11-25T15:32:32.339Z,14.43
2022-11-25T15:35:01.683Z,12.90
2022-11-25T15:37:29.026Z,13.27
2022-11-25T15:40:30.777Z,12.73
2022-11-25T15:43:00.432Z,10.25
2022-11-25T15:45:42.511Z,14.00
2022-11-25T15:48:27.222Z,13.15
2022-11-25T15:53:36.767Z,10.52
2022-11-25T15:56:06.730Z,15.45
2022-11-25T15:58:33.618Z,12.93
2022-11-25T16:01:21.247Z,14.43
2022-11-25T16:03:49.471Z,13.77
2022-11-25T16:06:26.865Z,14.13
2022-11-25T16:09:02.612Z,18.55
2022-11-25T16:11:33.500Z,17.35
2022-11-25T16:14:30.551Z,18.88
2022-11-25T16:17:12.073Z,9.80
2022-11-25T16:19:44.666Z,17.00
2022-11-25T16:22:18.762Z,8.93
2022-11-25T16:25:01.922Z,15.88
2022-11-25T16:27:29.887Z,13.38
2022-11-25T16:30:06.004Z,11.75
2022-11-25T16:32:34.144Z,12.18
2022-11-25T16:35:27.408Z,16.45
2022-11-25T16:37:58.177Z,12.32
2022-11-25T16:40:27.215Z,13.27
2022-11-25T16:42:54.051Z,13.73
2022-11-25T16:45:23.937Z,13.57
2022-11-25T16:47:50.863Z,11.55
2022-11-25T16:50:19.691Z,15.00
2022-11-25T16:52:46.613Z,10.70
2022-11-25T16:55:13.673Z,12.25
2022-11-25T16:57:42.910Z,15.65
2022-11-25T17:00:16.814Z,14.13
2022-11-25T17:02:44.777Z,11.05
2022-11-25T17:05:19.189Z,17.92
2022-11-25T17:10:13.244Z,18.98
2022-11-25T17:12:42.360Z,23.30
2022-11-25T17:15:17.148Z,18.13
2022-11-25T17:17:47.500Z,16.65
2022-11-25T17:20:17.805Z,19.90
2022-11-25T17:22:44.617Z,15.40
2022-11-25T17:25:14.638Z,17.88
2022-11-25T17:27:42.275Z,20.15
2022-11-25T17:30:23.749Z,14.70
2022-11-25T17:33:02.218Z,16.58
2022-11-25T17:35:29.077Z,17.48
2022-11-25T17:37:58.505Z,22.33
2022-11-25T17:40:25.403Z,19.02
2022-11-25T17:42:52.488Z,18.08
2022-11-25T17:45:21.567Z,20.98
2022-11-25T17:47:48.527Z,17.40
2022-11-25T17:50:22.788Z,24.88
2022-11-25T17:55:19.483Z,19.77
2022-11-25T17:57:47.932Z,19.60
2022-11-25T18:00:19.670Z,21.88
2022-11-25T18:02:47.321Z,20.33
2022-11-25T18:05:20.283Z,24.90
2022-11-25T18:07:47.497Z,17.55
2022-11-25T18:10:17.431Z,23.65
2022-11-25T18:12:46.593Z,17.63
2022-11-25T18:15:20.699Z,18.30
2022-11-25T18:17:48.735Z,17.50
2022-11-25T18:20:26.277Z,24.65
2022-11-25T18:22:53.662Z,16.33
2022-11-25T18:25:24.915Z,18.85
2022-11-25T18:27:56.782Z,20.13
2022-11-25T18:30:28.196Z,21.38
2022-11-25T18:32:56.219Z,23.98
2022-11-25T18:35:31.091Z,17.75
2022-11-25T18:38:01.043Z,20.85
2022-11-25T18:40:29.221Z,17.92
2022-11-25T18:43:00.358Z,19.55
2022-11-25T18:45:40.268Z,26.35
2022-11-25T18:48:14.800Z,29.65
2022-11-25T18:50:43.212Z,28.40
2022-11-25T18:53:09.981Z,26.27
2022-11-25T18:55:37.284Z,25.77
2022-11-25T18:58:19.022Z,21.67
2022-11-25T19:00:50.994Z,19.83
2022-11-25T19:03:25.851Z,21.13
2022-11-25T19:05:54.303Z,21.52
2022-11-25T19:08:21.500Z,19.80
2022-11-25T19:10:48.976Z,21.73
2022-11-25T19:13:34.704Z,28.38
2022-11-25T19:16:08.643Z,19.55
2022-11-25T19:18:35.644Z,24.08
2022-11-25T19:21:02.438Z,21.67
2022-11-25T19:23:29.252Z,17.52
2022-11-25T19:26:04.807Z,21.48
2022-11-25T19:28:32.059Z,17.13
2022-11-25T19:31:04.312Z,17.67
2022-11-25T19:33:37.216Z,18.15
2022-11-25T19:36:05.998Z,21.35
2022-11-25T19:38:34.692Z,25.55
2022-11-25T19:41:01.621Z,26.48
2022-11-25T19:43:28.439Z,17.95
2022-11-25T19:45:57.308Z,18.42
2022-11-25T19:48:26.970Z,27.63
2022-11-25T19:50:59.384Z,23.38
2022-11-25T19:53:33.043Z,18.60
2022-11-25T19:56:03.933Z,20.27
2022-11-25T19:58:31.249Z,27.90
2022-11-25T20:01:02.845Z,21.08
2022-11-25T20:03:31.084Z,24.40
2022-11-25T20:05:58.492Z,23.35
2022-11-25T20:08:28.912Z,22.27
2022-11-25T20:10:57.703Z,23.85
2022-11-25T20:13:25.871Z,22.33
2022-11-25T20:15:55.209Z,27.83
2022-11-25T20:18:26.017Z,50.20
2022-11-25T20:21:02.407Z,42.10
2022-11-25T20:23:44.355Z,50.75
2022-11-25T20:26:35.407Z,32.40
2022-11-25T20:29:03.269Z,23.38
2022-11-25T20:31:30.677Z,19.70
2022-11-25T20:33:57.959Z,26.98
2022-11-25T20:36:31.624Z,20.00
2022-11-25T20:38:59.707Z,27.73
2022-11-25T20:41:28.088Z,26.08
2022-11-25T20:43:56.466Z,25.55
2022-11-25T20:46:28.924Z,21.27
2022-11-25T20:48:59.386Z,27.23
2022-11-25T20:51:26.704Z,25.42
2022-11-25T20:53:57.701Z,19.42
2022-11-25T20:56:27.334Z,20.65
2022-11-25T20:58:54.196Z,20.60
2022-11-25T21:01:21.068Z,23.98
2022-11-25T21:03:49.523Z,22.70
2022-11-25T21:06:25.678Z,27.08
2022-11-25T21:08:54.036Z,28.77
2022-11-25T21:11:22.650Z,27.13
2022-11-25T21:13:50.426Z,23.27
2022-11-25T21:16:17.523Z,24.60
2022-11-25T21:18:44.590Z,19.90
2022-11-25T21:21:31.593Z,23.10
2022-11-25T21:24:10.368Z,23.77
2022-11-25T21:26:37.155Z,30.17
2022-11-25T21:29:03.962Z,26.65
2022-11-25T21:31:30.815Z,23.80
2022-11-25T21:33:59.167Z,22.63
2022-11-25T21:36:29.955Z,19.85
2022-11-25T21:39:09.030Z,24.95
2022-11-25T21:41:48.655Z,21.83
2022-11-25T21:44:39.889Z,22.85
2022-11-25T21:47:26.340Z,24.20
2022-11-25T21:49:53.617Z,30.13
2022-11-25T21:52:20.525Z,29.52
2022-11-25T21:54:47.478Z,26.15
2022-11-25T21:57:22.132Z,25.77
2022-11-25T21:59:49.277Z,27.52
2022-11-25T22:02:19.608Z,22.65
2022-11-25T22:04:46.616Z,21.02
2022-11-25T22:07:13.762Z,21.77
2022-11-25T22:09:41.232Z,29.65
2022-11-25T22:12:27.125Z,26.02
2022-11-25T22:14:54.301Z,24.02
2022-11-25T22:17:21.121Z,28.13
2022-11-25T22:19:47.959Z,33.15
2022-11-25T22:22:16.452Z,27.08
2022-11-25T22:24:43.636Z,27.10
2022-11-25T22:27:26.104Z,25.15
2022-11-25T22:29:53.132Z,25.60
2022-11-25T22:32:20.266Z,27.60
2022-11-25T22:34:47.317Z,28.15
2022-11-25T22:37:22.986Z,28.38
2022-11-25T22:39:50.333Z,32.28
2022-11-25T22:42:30.003Z,22.85
2022-11-25T22:44:58.869Z,24.98
2022-11-25T22:47:31.990Z,21.13
2022-11-25T22:50:02.286Z,25.05
2022-11-25T22:52:35.408Z,27.02
2022-11-25T22:55:14.514Z,27.13
2022-11-25T22:57:41.388Z,29.08
2022-11-25T23:00:12.141Z,19.25
2022-11-25T23:02:38.978Z,19.33
2022-11-25T23:05:16.469Z,24.58
2022-11-25T23:07:43.641Z,22.35
2022-11-25T23:10:25.384Z,23.08
2022-11-25T23:12:52.512Z,20.27
2022-11-25T23:15:22.604Z,26.38
2022-11-25T23:17:59.261Z,19.40
2022-11-25T23:20:36.463Z,31.85
2022-11-25T23:23:14.681Z,28.02
2022-11-25T23:25:42.777Z,21.02
2022-11-25T23:28:09.840Z,30.38
2022-11-25T23:30:37.043Z,23.40
2022-11-25T23:33:09.297Z,35.20
2022-11-25T23:35:38.359Z,28.58
2022-11-25T23:38:16.857Z,29.05
2022-11-25T23:40:44.028Z,28.30
2022-11-25T23:43:15.742Z,22.35
2022-11-25T23:45:55.148Z,26.48
2022-11-25T23:48:28.305Z,25.38
2022-11-25T23:50:57.092Z,25.65
2022-11-25T23:53:32.026Z,24.58
2022-11-25T23:55:58.928Z,30.52
2022-11-25T23:58:25.892Z,25.17
